Terminal Aerodrome Forecast
Issued by NWS

Current Version | Previous Version | Text Only | Print | Product List | Glossary On
Versions: 1 2 3 4 5 6 7 8 9 10 11 12 13 14 15 16 17 18 19 20 21 22 23 24 25
000
FTUS41 KOKX 240200 AAA
TAFSWF
TAF AMD
KSWF 240237Z 2403/2506 VRB04KT P6SM FEW250
     FM241400 09010KT P6SM SCT025 SCT100 BKN250
     FM242000 12010KT P6SM SCT025 BKN080 BKN250
      AMD NOT SKED=

USA.gov is the U.S. government's official web portal to all federal, state and local government web resources and services.